Skip Navigation Links
NOAA logo - Click to go to the NOAA homepage
NOAA's National Weather Service
Alaska Aviation Weather Unit
  NWS logo - Click to go to the NWS homepage
Left Navbar Graphic     21 AKDT = 05 GMT

   
NOAA is celebrating 200 years of science, service, and stewardship. Visit the NOAA 200th celebration Web site to learn more.
USA.gov is the U.S. Government's official Web portal to all Federal, state and local government Web resources and services.
Facebook
NWS on Facebook

AAWU Home :: Display TAF Add Bookmark
METAR PAKV 262353Z AUTO 03005KT 10SM CLR 10/M01 A2959 RMK AO2 SLP024
     T01001011 10100 20050 58005 TSNO=

METAR PAKV 270053Z AUTO 03005KT 10SM CLR 10/M01 A2958 RMK AO2 SLP021
 T01001011 TSNO=

METAR PAKV 270153Z AUTO 03005KT 10SM CLR 09/M02 A2958 RMK AO2 SLP018
 T00941017 TSNO=

METAR PAKV 270253Z AUTO 03006KT 10SM SCT060 BKN090 10/M02 A2958 RMK
 AO2 SLP020 T01001017 55004 TSNO=

METAR PAKV 270353Z AUTO 04004KT 10SM FEW070 SCT095 08/M02 A2958 RMK AO2
     SLP021 T00831022 TSNO=

METAR PAKV 270453Z AUTO 03004KT 10SM BKN065 OVC095 07/M01 A2960 RMK
 AO2 SLP025 T00671011 TSNO=


NOAA's National Weather Service
Alaska Aviation Weather Unit
6930 Sand Lake Road
Anchorage, AK 99502-1845
Disclaimer
Credits
Glossary
Privacy Policy
About Us
Career Opportunities
Contact AAWU Internet Services Site last modified: April, 17th 2012